Parks, Louisiana
Current Conditions -  °F | °C
As of 9:53 AM on Thursday 30 Oct 2014 (Local Time) from KLFT Reporting Station
Clear Clear  
Wind Chill: 63°   Ceiling: Unl
Heat Index: 63°   Visibility: 10mi
Dew Point: 48°   Wind: 7mph
Humidity: 58%   Direction: 60°ENE
Pressure: 30.15"   Gusts: NA
Location:  30.2235°N, 91.7772°W
Report Text: KLFT 301453Z 06006KT 10SM CLR 17/09 A3015 RMK AO2 SLP208 T01720089 51013
Loading
Personal Weather Stations






























Interactive Weather Map
Tropical Storm Tracking
New forecast layout! Learn more

10-Day Weather Forecast

Advertisements
Track Severe Weather on mobile